Time;durP1;ratioP1;P1;durP2;ratioP2;P2;SDS_P1;SDS_P2;PMS_P1;PMS_P2;Temp;Humidity;BMP_temperature;BMP_pressure;BME280_temperature;BME280_humidity;BME280_pressure;Samples;Min_cycle;Max_cycle;Signal;HPM_P1;HPM_P2
2022/06/08 00:02:20;;;;;;;38.92;33.70;;;;;;;14.00;100.00;101038.66;4969729;28;20031;-74
2022/06/08 00:04:45;;;;;;;41.35;35.90;;;;;;;13.99;100.00;101036.00;4970521;28;20021;-75
2022/06/08 00:07:11;;;;;;;39.60;34.08;;;;;;;13.98;100.00;101034.25;4971027;28;20471;-74
2022/06/08 00:09:36;;;;;;;38.00;33.75;;;;;;;13.96;100.00;101034.22;4970753;28;20133;-74
2022/06/08 00:12:03;;;;;;;36.38;32.50;;;;;;;13.93;100.00;101029.84;4970844;28;20813;-74
2022/06/08 00:14:28;;;;;;;38.80;32.53;;;;;;;13.90;100.00;101027.19;4970965;28;20029;-74
2022/06/08 00:16:54;;;;;;;40.20;35.15;;;;;;;13.88;100.00;101023.66;4970943;28;20015;-75
2022/06/08 00:19:19;;;;;;;36.55;32.35;;;;;;;13.87;100.00;101021.03;4970455;28;20108;-74
2022/06/08 00:21:44;;;;;;;35.92;32.00;;;;;;;13.83;100.00;101020.06;4970473;28;20043;-74
2022/06/08 00:24:10;;;;;;;37.03;33.03;;;;;;;13.81;100.00;101017.41;4970398;28;20015;-74
2022/06/08 00:26:36;;;;;;;43.22;35.95;;;;;;;13.81;100.00;101012.19;4970749;28;20462;-72
2022/06/08 00:29:03;;;;;;;41.03;35.05;;;;;;;13.79;100.00;101006.09;4970566;28;20076;-72
2022/06/08 00:31:28;;;;;;;41.20;36.05;;;;;;;13.78;100.00;101008.69;4970644;28;20109;-73
2022/06/08 00:33:53;;;;;;;43.72;37.05;;;;;;;13.77;100.00;101006.91;4970426;28;20097;-74
2022/06/08 00:36:21;;;;;;;46.33;39.53;;;;;;;13.75;100.00;101005.97;4970242;28;20093;-74
2022/06/08 00:38:47;;;;;;;45.97;38.92;;;;;;;13.76;100.00;101007.75;4969858;28;20089;-73
2022/06/08 00:41:41;;;;;;;42.15;36.35;;;;;;;13.74;100.00;100993.81;4970685;28;20018;-74
2022/06/08 00:44:16;;;;;;;41.13;36.35;;;;;;;13.74;100.00;100999.03;4970197;28;20109;-74
2022/06/08 00:46:42;;;;;;;41.70;37.30;;;;;;;13.72;100.00;100995.50;4969149;28;20278;-74
2022/06/08 00:49:16;;;;;;;39.97;35.88;;;;;;;13.68;100.00;100989.34;4969179;28;20081;-73
2022/06/08 00:51:42;;;;;;;41.33;37.03;;;;;;;13.68;100.00;100986.75;4969882;28;20058;-73
2022/06/08 00:54:12;;;;;;;42.47;37.95;;;;;;;13.65;100.00;100984.94;4970151;28;20117;-73
2022/06/08 00:56:47;;;;;;;41.78;37.53;;;;;;;13.63;100.00;100986.66;4969821;28;20046;-74
2022/06/08 00:59:13;;;;;;;41.17;37.08;;;;;;;13.61;100.00;100988.34;4969388;28;20097;-74
2022/06/08 01:01:38;;;;;;;39.63;35.60;;;;;;;13.58;100.00;100980.47;4968697;28;20133;-74
2022/06/08 01:04:12;;;;;;;37.22;33.53;;;;;;;13.55;100.00;100980.41;4969583;28;20850;-74
2022/06/08 01:06:40;;;;;;;39.10;35.20;;;;;;;13.51;100.00;100981.16;4969551;28;20054;-74
2022/06/08 01:09:15;;;;;;;40.45;36.15;;;;;;;13.45;100.00;100972.34;4969565;28;20031;-74
2022/06/08 01:11:43;;;;;;;44.53;39.67;;;;;;;13.42;100.00;100976.63;4969014;28;20035;-73
2022/06/08 01:14:19;;;;;;;45.78;40.92;;;;;;;13.37;100.00;100966.09;4969320;28;20027;-72
2022/06/08 01:16:53;;;;;;;46.35;41.28;;;;;;;13.35;100.00;100964.31;4969340;28;20081;-74
2022/06/08 01:19:19;;;;;;;44.20;39.40;;;;;;;13.32;100.00;100962.50;4966717;28;20066;-74
2022/06/08 01:21:50;;;;;;;46.45;40.22;;;;;;;13.29;100.00;100962.44;4968573;28;20563;-74
2022/06/08 01:24:15;;;;;;;49.58;40.22;;;;;;;13.26;100.00;100959.78;4969991;28;20030;-74
2022/06/08 01:27:00;;;;;;;50.53;40.60;;;;;;;13.21;100.00;100947.53;4969614;28;20475;-74
2022/06/08 01:29:41;;;;;;;45.63;39.90;;;;;;;13.18;100.00;100942.28;4963490;28;20031;-74
2022/06/08 01:32:39;;;;;;;43.90;38.58;;;;;;;13.15;100.00;100939.59;4964508;28;20110;-74
2022/06/08 01:35:42;;;;;;;47.83;39.55;;;;;;;13.11;100.00;100940.38;4969481;28;20030;-74
2022/06/08 01:38:20;;;;;;;47.08;39.67;;;;;;;13.06;100.00;100940.25;4893532;29;20041;-74
2022/06/08 01:41:10;;;;;;;48.65;40.65;;;;;;;13.05;100.00;100929.81;4962510;28;20081;-73
2022/06/08 01:43:44;;;;;;;50.90;41.92;;;;;;;13.00;100.00;100921.91;4969275;28;20497;-73
2022/06/08 01:46:29;;;;;;;49.90;41.58;;;;;;;12.97;100.00;100921.81;4969170;28;20027;-72
2022/06/08 01:49:10;;;;;;;48.95;40.22;;;;;;;12.96;100.00;100926.16;4968852;28;20045;-74
2022/06/08 01:51:41;;;;;;;51.08;41.00;;;;;;;12.94;100.00;100912.25;4969807;28;20050;-72
2022/06/08 01:54:28;;;;;;;49.78;40.65;;;;;;;12.92;100.00;100910.44;4968639;28;20034;-73
2022/06/08 01:57:11;;;;;;;53.80;40.92;;;;;;;12.90;100.00;100910.41;4969036;28;20027;-74
2022/06/08 01:59:47;;;;;;;52.50;42.03;;;;;;;12.90;100.00;100901.75;4966448;28;20432;-74
2022/06/08 02:02:22;;;;;;;52.22;41.30;;;;;;;12.90;100.00;100909.53;4965796;28;20360;-74
2022/06/08 02:04:55;;;;;;;50.42;39.53;;;;;;;12.89;100.00;100903.47;4968882;28;20030;-73
2022/06/08 02:07:32;;;;;;;50.08;39.45;;;;;;;12.88;100.00;100893.03;4968418;28;20471;-74
2022/06/08 02:10:28;;;;;;;54.38;39.38;;;;;;;12.89;100.00;100893.06;4968612;28;20110;-74
2022/06/08 02:13:11;;;;;;;48.78;37.67;;;;;;;12.90;100.00;100879.19;4968805;28;20475;-74
2022/06/08 02:15:44;;;;;;;43.78;37.05;;;;;;;12.90;100.00;100874.00;4966488;28;20058;-74
2022/06/08 02:18:21;;;;;;;44.22;36.70;;;;;;;12.90;100.00;100873.13;4967787;28;20031;-74
2022/06/08 02:20:57;;;;;;;45.08;36.78;;;;;;;12.87;100.00;100866.13;4967776;28;20047;-74
2022/06/08 02:23:29;;;;;;;48.58;37.67;;;;;;;12.84;100.00;100866.91;4967870;28;20457;-74
2022/06/08 02:26:13;;;;;;;45.30;34.85;;;;;;;12.84;100.00;100861.72;4968321;28;20038;-73
2022/06/08 02:28:54;;;;;;;40.92;34.15;;;;;;;12.82;100.00;100855.63;4968446;28;20116;-74
2022/06/08 02:31:25;;;;;;;40.38;34.80;;;;;;;12.83;100.00;100853.88;4968140;28;20027;-74
2022/06/08 02:36:54;;;;;;;36.95;31.15;;;;;;;12.76;100.00;100842.47;4967793;28;20303;-73
2022/06/08 02:39:27;;;;;;;38.10;31.40;;;;;;;12.76;100.00;100850.28;4965972;28;20049;-74
2022/06/08 02:41:56;;;;;;;36.65;30.98;;;;;;;12.73;100.00;100839.81;4968366;28;20077;-73
2022/06/08 02:44:26;;;;;;;36.33;31.05;;;;;;;12.73;100.00;100843.31;4968199;28;20023;-74
2022/06/08 02:47:04;;;;;;;33.65;28.73;;;;;;;12.69;100.00;100838.88;4967763;28;20054;-74
2022/06/08 02:49:33;;;;;;;37.65;28.27;;;;;;;12.69;100.00;100837.97;4967698;28;20026;-73
2022/06/08 02:52:03;;;;;;;31.80;27.15;;;;;;;12.68;100.00;100841.44;4967851;28;20054;-73
2022/06/08 02:54:29;;;;;;;31.75;27.23;;;;;;;12.66;100.00;100838.81;4966731;28;20031;-74
2022/06/08 02:57:04;;;;;;;30.83;26.00;;;;;;;12.65;100.00;100829.22;4968135;28;20058;-74
2022/06/08 02:59:51;;;;;;;29.25;25.55;;;;;;;12.63;100.00;100833.50;4967969;28;20110;-73
2022/06/08 03:02:24;;;;;;;31.73;26.27;;;;;;;12.63;100.00;100833.50;4956429;28;20158;-73
2022/06/08 03:04:52;;;;;;;31.77;24.63;;;;;;;12.60;100.00;100828.25;4963223;28;20019;-73
2022/06/08 03:07:23;;;;;;;27.42;24.45;;;;;;;12.59;100.00;100831.69;4979834;28;20037;-74
2022/06/08 03:09:50;;;;;;;28.60;23.60;;;;;;;12.57;100.00;100822.97;4965043;28;20268;-74
2022/06/08 03:12:37;;;;;;;27.27;23.52;;;;;;;12.55;100.00;100819.47;4964952;28;20491;-73
2022/06/08 03:15:05;;;;;;;26.98;24.10;;;;;;;12.57;100.00;100822.97;4965817;28;20018;-74
2022/06/08 03:17:33;;;;;;;27.25;24.13;;;;;;;12.55;100.00;100814.25;4965456;28;20025;-74
2022/06/08 03:20:00;;;;;;;25.88;23.15;;;;;;;12.53;100.00;100821.13;4965169;28;20113;-73
2022/06/08 03:22:26;;;;;;;25.85;22.92;;;;;;;12.50;100.00;100814.16;4967696;28;20101;-73
2022/06/08 03:24:52;;;;;;;25.80;22.08;;;;;;;12.47;100.00;100820.16;4968010;28;20105;-73
2022/06/08 03:27:17;;;;;;;26.88;24.02;;;;;;;12.46;100.00;100822.72;4968677;28;20023;-73
2022/06/08 03:29:43;;;;;;;27.73;24.73;;;;;;;12.48;100.00;100824.50;4968413;28;20058;-73
2022/06/08 03:32:09;;;;;;;31.75;25.10;;;;;;;12.49;100.00;100815.00;4970902;28;20145;-73
2022/06/08 03:34:35;;;;;;;27.88;24.15;;;;;;;12.49;100.00;100809.78;4972068;28;20069;-73
2022/06/08 03:37:00;;;;;;;31.00;24.00;;;;;;;12.48;100.00;100814.09;4971888;28;20022;-73
2022/06/08 03:39:26;;;;;;;27.65;24.23;;;;;;;12.47;100.00;100820.16;4972242;28;20029;-74
2022/06/08 03:41:51;;;;;;;26.50;23.35;;;;;;;12.47;100.00;100822.75;4972463;28;20321;-74
2022/06/08 03:44:16;;;;;;;27.48;23.98;;;;;;;12.48;100.00;100814.09;4972161;28;20468;-74
2022/06/08 03:46:50;;;;;;;27.40;22.75;;;;;;;12.49;100.00;100827.97;4971535;28;20023;-74
2022/06/08 03:49:15;;;;;;;28.08;23.55;;;;;;;12.52;100.00;100825.44;4972210;28;20023;-73
2022/06/08 03:51:43;;;;;;;25.83;23.02;;;;;;;12.54;100.00;100821.16;4971982;28;20030;-73
2022/06/08 03:54:14;;;;;;;24.55;21.95;;;;;;;12.56;100.00;100826.41;4971720;28;20046;-73
2022/06/08 03:56:42;;;;;;;25.60;22.92;;;;;;;12.59;100.00;100821.31;4971431;28;20034;-73
2022/06/08 03:59:08;;;;;;;26.77;22.33;;;;;;;12.62;100.00;100826.56;4971535;28;20030;-73
2022/06/08 04:01:34;;;;;;;25.80;22.38;;;;;;;12.64;100.00;100830.09;4967165;28;20034;-74
2022/06/08 04:03:59;;;;;;;25.23;22.48;;;;;;;12.65;100.00;100821.44;4962904;28;20031;-73
2022/06/08 04:06:25;;;;;;;23.23;20.73;;;;;;;12.68;100.00;100810.22;4970820;28;20031;-73
2022/06/08 04:08:51;;;;;;;24.52;21.77;;;;;;;12.71;100.00;100815.50;4971688;28;20126;-73
2022/06/08 04:11:17;;;;;;;24.10;21.48;;;;;;;12.72;100.00;100812.94;4971259;28;20383;-74
2022/06/08 04:13:42;;;;;;;22.55;20.13;;;;;;;12.74;100.00;100810.34;4971472;28;20026;-74
2022/06/08 04:16:08;;;;;;;22.42;19.05;;;;;;;12.78;100.00;100816.50;4971566;28;20027;-73
2022/06/08 04:18:33;;;;;;;25.73;20.42;;;;;;;12.80;100.00;100810.50;4970649;28;20038;-73
2022/06/08 04:21:02;;;;;;;21.45;19.17;;;;;;;12.85;100.00;100813.19;4971321;28;20051;-74
2022/06/08 04:23:29;;;;;;;23.75;19.95;;;;;;;12.89;100.00;100798.53;4971306;28;20628;-73
2022/06/08 04:25:57;;;;;;;22.42;19.83;;;;;;;12.92;100.00;100793.41;4970185;28;20038;-73
2022/06/08 04:28:22;;;;;;;21.30;19.05;;;;;;;12.94;100.00;100795.19;4971199;28;20371;-73
2022/06/08 04:30:48;;;;;;;22.20;19.83;;;;;;;12.93;100.00;100797.78;4970829;28;20057;-73
2022/06/08 04:33:15;;;;;;;21.92;19.60;;;;;;;12.96;100.00;100801.31;4969831;28;20496;-74
2022/06/08 04:35:41;;;;;;;20.05;17.90;;;;;;;12.95;100.00;100804.75;4970135;28;20045;-72
2022/06/08 04:38:08;;;;;;;21.13;18.70;;;;;;;13.00;100.00;100806.59;4969897;28;20048;-73
2022/06/08 04:40:34;;;;;;;21.35;17.67;;;;;;;13.00;100.00;100788.38;4969822;28;20030;-72
2022/06/08 04:42:59;;;;;;;18.88;16.88;;;;;;;13.03;100.00;100793.63;4969521;28;20019;-74
2022/06/08 04:45:25;;;;;;;18.30;16.60;;;;;;;13.05;100.00;100790.22;4968693;28;20033;-73
2022/06/08 04:47:50;;;;;;;17.77;15.90;;;;;;;13.05;100.00;100789.34;4969290;28;20159;-73
2022/06/08 04:50:16;;;;;;;17.80;15.90;;;;;;;13.10;100.00;100787.72;4970747;28;20065;-73
2022/06/08 04:52:41;;;;;;;16.70;14.95;;;;;;;13.14;100.00;100783.44;4970815;28;20035;-73
2022/06/08 04:55:09;;;;;;;16.88;14.55;;;;;;;13.16;100.00;100779.16;4970364;28;20541;-74
2022/06/08 04:57:37;;;;;;;15.73;14.10;;;;;;;13.21;100.00;100780.13;4970450;28;20039;-72
2022/06/08 05:00:08;;;;;;;15.48;14.05;;;;;;;13.24;100.00;100768.91;4969442;28;20066;-71
2022/06/08 05:02:43;;;;;;;15.88;14.23;;;;;;;13.29;100.00;100772.50;4957296;28;20152;-73
2022/06/08 05:05:14;;;;;;;17.50;14.35;;;;;;;13.33;100.00;100775.16;4956668;28;20038;-71
2022/06/08 05:07:40;;;;;;;16.27;14.73;;;;;;;13.35;100.00;100772.59;4970412;28;20026;-73
2022/06/08 05:10:05;;;;;;;16.42;13.70;;;;;;;13.37;100.00;100770.91;4970055;28;20105;-73
2022/06/08 05:12:31;;;;;;;15.27;13.73;;;;;;;13.41;100.00;100767.53;4969513;28;20097;-73
2022/06/08 05:14:57;;;;;;;16.15;13.60;;;;;;;13.43;100.00;100765.84;4969973;28;20032;-73
2022/06/08 05:17:22;;;;;;;15.05;13.55;;;;;;;13.43;100.00;100760.63;4969379;28;20073;-73
2022/06/08 05:19:47;;;;;;;14.75;13.50;;;;;;;13.44;100.00;100757.16;4970312;28;20040;-73
2022/06/08 05:22:13;;;;;;;15.85;14.38;;;;;;;13.43;100.00;100751.94;4969461;28;20059;-73
2022/06/08 05:24:39;;;;;;;15.45;13.98;;;;;;;13.45;100.00;100752.84;4969746;28;20038;-72
2022/06/08 05:27:04;;;;;;;15.85;14.27;;;;;;;13.48;100.00;100746.78;4969185;28;20471;-73
2022/06/08 05:29:29;;;;;;;17.30;15.40;;;;;;;13.53;100.00;100750.38;4969493;28;20030;-72
2022/06/08 05:31:56;;;;;;;15.52;13.88;;;;;;;13.56;100.00;100745.25;4961522;28;20027;-74
2022/06/08 05:34:21;;;;;;;15.68;14.27;;;;;;;13.59;100.00;100744.44;4967576;28;20042;-73
2022/06/08 05:36:47;;;;;;;14.48;13.07;;;;;;;13.63;100.00;100735.84;4969008;28;20043;-74
2022/06/08 05:39:12;;;;;;;15.38;13.90;;;;;;;13.63;100.00;100731.50;4969288;28;20050;-73
2022/06/08 05:41:38;;;;;;;15.10;13.73;;;;;;;13.66;100.00;100726.34;4966641;28;20026;-73
2022/06/08 05:44:03;;;;;;;14.88;13.65;;;;;;;13.71;100.00;100728.16;4968454;28;20034;-72
2022/06/08 05:46:29;;;;;;;14.50;13.20;;;;;;;13.73;100.00;100710.81;4969248;28;20021;-74
2022/06/08 05:48:54;;;;;;;13.45;12.05;;;;;;;13.75;100.00;100715.22;4968963;28;20115;-74
2022/06/08 05:51:19;;;;;;;14.15;12.68;;;;;;;13.79;100.00;100713.53;4950326;28;20029;-74
2022/06/08 05:53:45;;;;;;;14.50;13.15;;;;;;;13.81;100.00;100710.09;4968158;28;20085;-73
2022/06/08 05:56:11;;;;;;;13.77;12.57;;;;;;;13.88;100.00;100716.31;4971841;28;20465;-73
2022/06/08 05:58:36;;;;;;;14.82;12.98;;;;;;;13.93;100.00;100709.44;4968268;28;20113;-74
2022/06/08 06:01:02;;;;;;;13.85;12.55;;;;;;;14.00;100.00;100709.50;4967807;28;20515;-73
2022/06/08 06:03:27;;;;;;;13.38;12.07;;;;;;;14.07;100.00;100705.31;4965672;28;20049;-73
2022/06/08 06:05:52;;;;;;;13.38;12.02;;;;;;;14.12;100.00;100699.28;4968716;28;20027;-72
2022/06/08 06:08:18;;;;;;;12.95;11.75;;;;;;;14.20;100.00;100701.13;4967811;28;20034;-72
2022/06/08 06:10:46;;;;;;;12.25;11.07;;;;;;;14.21;100.00;100692.47;4968785;28;20034;-73
2022/06/08 06:13:11;;;;;;;12.35;11.15;;;;;;;14.25;100.00;100694.25;4968835;28;20034;-73
2022/06/08 06:15:37;;;;;;;12.68;10.68;;;;;;;14.26;100.00;100693.41;4968436;28;20658;-73
2022/06/08 06:18:04;;;;;;;10.95;9.93;;;;;;;14.28;100.00;100697.78;4967743;28;20106;-73
2022/06/08 06:20:31;;;;;;;11.68;10.43;;;;;;;14.31;100.00;100699.56;4967283;28;20042;-74
2022/06/08 06:22:57;;;;;;;10.35;9.18;;;;;;;14.33;100.00;100702.19;4968235;28;20031;-73
2022/06/08 06:25:23;;;;;;;10.73;9.57;;;;;;;14.37;100.00;100704.84;4950732;28;20022;-74
2022/06/08 06:27:48;;;;;;;9.85;8.75;;;;;;;14.39;100.00;100708.34;4964893;28;20415;-74
2022/06/08 06:30:14;;;;;;;11.75;8.60;;;;;;;14.42;100.00;100707.53;4965038;28;20159;-74
2022/06/08 06:32:42;;;;;;;8.95;8.05;;;;;;;14.44;100.00;100702.34;4965041;28;20033;-74
2022/06/08 06:35:15;;;;;;;9.68;8.77;;;;;;;14.45;100.00;100706.69;4982044;28;20368;-74
2022/06/08 06:37:41;;;;;;;10.18;7.95;;;;;;;14.41;100.00;100704.03;4949854;28;20077;-73
2022/06/08 06:40:07;;;;;;;10.45;8.15;;;;;;;14.44;100.00;100705.84;4967937;28;20266;-74
2022/06/08 06:42:33;;;;;;;8.88;7.95;;;;;;;14.47;100.00;100707.59;4966275;28;20387;-73
2022/06/08 06:44:59;;;;;;;8.38;6.93;;;;;;;14.47;100.00;100712.81;4963900;28;20356;-74
2022/06/08 06:47:24;;;;;;;8.30;7.20;;;;;;;14.52;100.00;100708.53;4966722;28;20029;-73
2022/06/08 06:49:49;;;;;;;7.90;6.55;;;;;;;14.59;100.00;100699.94;4968266;28;20030;-73
2022/06/08 06:52:17;;;;;;;8.65;6.45;;;;;;;14.71;100.00;100707.06;4968268;28;20027;-74
2022/06/08 06:54:43;;;;;;;6.18;5.57;;;;;;;14.80;100.00;100700.19;4968588;28;20344;-73
2022/06/08 06:57:08;;;;;;;6.70;5.53;;;;;;;14.94;100.00;100695.16;4968247;28;20041;-73
2022/06/08 06:59:34;;;;;;;7.72;5.30;;;;;;;15.05;100.00;100693.56;4961985;28;20027;-73
2022/06/08 07:01:59;;;;;;;6.05;4.80;;;;;;;15.16;100.00;100690.19;4950515;28;20026;-73
2022/06/08 07:04:25;;;;;;;7.78;4.40;;;;;;;15.39;100.00;100684.31;4949810;28;20027;-74
2022/06/08 07:06:51;;;;;;;7.90;5.00;;;;;;;15.54;100.00;100687.06;4951596;28;20164;-73
2022/06/08 07:09:16;;;;;;;6.47;4.75;;;;;;;15.74;100.00;100681.13;4949018;28;20168;-72
2022/06/08 07:11:42;;;;;;;5.85;3.97;;;;;;;15.93;100.00;100678.69;4950054;28;20038;-72
2022/06/08 07:14:12;;;;;;;5.32;3.58;;;;;;;16.16;100.00;100670.16;4950269;28;20028;-74
2022/06/08 07:16:38;;;;;;;8.10;4.28;;;;;;;16.46;100.00;100679.00;4948464;28;20038;-74
2022/06/08 07:19:05;;;;;;;4.32;3.97;;;;;;;16.61;100.00;100670.38;4947222;28;20023;-73
2022/06/08 07:21:31;;;;;;;4.78;3.30;;;;;;;16.83;100.00;100673.09;4948021;28;20500;-74
2022/06/08 07:23:56;;;;;;;5.28;3.00;;;;;;;16.83;100.00;100677.44;4933622;28;20097;-74
2022/06/08 07:26:25;;;;;;;11.10;3.45;;;;;;;16.99;100.00;100673.13;4948443;28;20062;-73
2022/06/08 07:29:00;;;;;;;7.55;3.10;;;;;;;16.89;100.00;100661.75;4949894;28;20030;-74
2022/06/08 07:31:26;;;;;;;4.63;2.58;;;;;;;16.86;100.00;100662.63;4947443;28;20033;-73
2022/06/08 07:33:52;;;;;;;4.57;3.17;;;;;;;16.80;100.00;100663.47;4948397;28;20030;-74
2022/06/08 07:36:17;;;;;;;6.03;3.20;;;;;;;16.77;100.00;100658.22;4947489;28;20456;-74
2022/06/08 07:38:43;;;;;;;7.47;3.40;;;;;;;16.82;100.00;100660.00;4949199;28;20035;-74
2022/06/08 07:41:08;;;;;;;6.40;3.25;;;;;;;16.82;100.00;100660.00;4949276;28;20052;-74
2022/06/08 07:43:33;;;;;;;5.35;2.97;;;;;;;16.87;100.00;100663.50;4949047;28;20042;-74
2022/06/08 07:45:59;;;;;;;4.70;3.10;;;;;;;16.91;100.00;100671.34;4949895;28;20047;-74
2022/06/08 07:51:10;;;;;;;5.00;2.88;;;;;;;16.98;100.00;100666.16;4950715;28;20034;-74
2022/06/08 07:53:35;;;;;;;6.85;3.70;;;;;;;16.92;100.00;100664.38;4948507;28;20101;-73
2022/06/08 07:56:00;;;;;;;5.68;3.00;;;;;;;17.15;100.00;100666.19;4954080;28;20026;-74
2022/06/08 07:58:26;;;;;;;4.63;3.30;;;;;;;17.28;100.00;100668.00;4967890;28;20474;-74
2022/06/08 08:00:53;;;;;;;6.93;3.17;;;;;;;17.31;100.00;100668.84;4967950;28;20390;-74
2022/06/08 08:03:19;;;;;;;5.28;3.17;;;;;;;17.30;100.00;100667.09;4967986;28;20054;-74
2022/06/08 08:05:45;;;;;;;5.35;3.00;;;;;;;17.30;100.00;100660.13;4967983;28;20166;-74
2022/06/08 08:08:12;;;;;;;8.70;3.40;;;;;;;17.33;100.00;100672.34;4967386;28;20050;-74
2022/06/08 08:10:37;;;;;;;7.30;2.83;;;;;;;17.33;100.00;100670.59;4968021;28;20121;-72
2022/06/08 08:13:03;;;;;;;5.18;2.33;;;;;;;17.33;100.00;100669.72;4968189;28;20110;-74
2022/06/08 08:15:29;;;;;;;7.30;2.72;;;;;;;17.30;100.00;100667.09;4967515;28;20069;-74
2022/06/08 08:17:55;;;;;;;6.38;3.35;;;;;;;17.28;100.00;100669.72;4968341;28;20460;-74
2022/06/08 08:20:23;;;;;;;4.15;2.25;;;;;;;17.27;100.00;100663.59;4970984;28;20455;-74
2022/06/08 08:22:49;;;;;;;5.78;2.55;;;;;;;17.32;100.00;100660.13;4971416;28;20042;-72
2022/06/08 08:25:16;;;;;;;6.63;2.40;;;;;;;17.25;100.00;100657.50;4971421;28;20023;-72
2022/06/08 08:27:43;;;;;;;6.63;2.17;;;;;;;17.25;100.00;100660.09;4969183;28;20402;-72
2022/06/08 08:30:11;;;;;;;5.85;2.58;;;;;;;17.22;100.00;100661.84;4968769;28;20029;-71
2022/06/08 08:32:36;;;;;;;7.20;2.40;;;;;;;17.21;100.00;100658.38;4968346;28;20023;-73
2022/06/08 08:35:03;;;;;;;7.35;2.78;;;;;;;17.22;100.00;100667.97;4969191;28;20601;-72
2022/06/08 08:37:29;;;;;;;5.75;2.60;;;;;;;17.18;100.00;100662.72;4969035;28;20029;-72
2022/06/08 08:39:55;;;;;;;7.22;2.80;;;;;;;17.14;100.00;100661.84;4968431;28;20398;-73
2022/06/08 08:42:21;;;;;;;6.85;2.47;;;;;;;17.04;100.00;100666.16;4960341;28;20031;-72
2022/06/08 08:45:06;;;;;;;5.80;3.25;;;;;;;17.08;100.00;100661.78;4962169;28;20037;-72
2022/06/08 08:47:34;;;;;;;8.15;3.13;;;;;;;17.09;100.00;100663.56;4970477;28;20027;-72
2022/06/08 08:50:16;;;;;;;7.68;2.58;;;;;;;16.98;100.00;100656.53;4969660;28;20395;-72
2022/06/08 08:53:07;;;;;;;4.97;2.47;;;;;;;16.96;100.00;100663.53;4969442;28;20069;-72
2022/06/08 08:55:58;;;;;;;9.20;3.33;;;;;;;16.90;100.00;100656.53;4969302;28;20145;-72
2022/06/08 08:58:36;;;;;;;10.50;3.35;;;;;;;16.89;100.00;100662.63;4970158;28;20503;-73
2022/06/08 09:01:26;;;;;;;5.82;2.50;;;;;;;16.90;100.00;100660.88;4957893;28;20053;-72
2022/06/08 09:03:58;;;;;;;9.40;2.92;;;;;;;16.96;100.00;100668.78;4960733;28;20015;-73
2022/06/08 09:06:28;;;;;;;6.75;2.45;;;;;;;17.03;100.00;100665.28;4965871;28;20031;-72
2022/06/08 09:09:00;;;;;;;8.75;2.90;;;;;;;17.07;100.00;100673.16;4969151;28;20034;-72
2022/06/08 09:11:31;;;;;;;8.57;2.45;;;;;;;17.10;100.00;100667.91;4969416;28;20050;-73
2022/06/08 09:14:00;;;;;;;;;;;;;;;17.13;100.00;100671.44;4969652;28;20476;-72
2022/06/08 09:16:35;;;;;;;7.38;2.58;;;;;;;17.01;100.00;100666.16;4967987;28;20114;-73
2022/06/08 09:19:20;;;;;;;6.63;2.53;;;;;;;16.99;100.00;100668.75;4966310;28;20056;-72
2022/06/08 09:21:45;;;;;;;6.60;2.65;;;;;;;16.97;100.00;100667.88;4967990;28;20055;-72
2022/06/08 09:24:18;;;;;;;4.85;2.58;;;;;;;16.88;100.00;100667.84;4968039;28;20566;-72
2022/06/08 09:26:44;;;;;;;7.70;2.53;;;;;;;16.83;100.00;100656.50;4968517;28;20034;-72
2022/06/08 09:29:17;;;;;;;10.95;2.70;;;;;;;16.75;100.00;100661.69;4968042;28;20050;-72
2022/06/08 09:31:43;;;;;;;9.82;2.95;;;;;;;16.66;100.00;100666.03;4968868;28;20089;-72
2022/06/08 09:34:23;;;;;;;5.35;2.58;;;;;;;16.61;100.00;100672.09;4969413;28;20037;-72
2022/06/08 09:37:12;;;;;;;8.20;2.58;;;;;;;16.59;100.00;100668.59;4968148;28;20054;-72
2022/06/08 09:39:42;;;;;;;4.82;2.33;;;;;;;16.51;100.00;100672.09;4975828;28;20058;-72
2022/06/08 09:42:40;;;;;;;8.38;3.03;;;;;;;16.44;100.00;100676.41;4960566;28;20041;-73
2022/06/08 09:45:34;;;;;;;6.28;2.47;;;;;;;16.43;100.00;100679.00;4966021;28;20042;-72
2022/06/08 09:51:47;;;;;;;8.65;3.20;;;;;;;16.44;100.00;100675.53;4968626;28;20105;-72
2022/06/08 09:54:47;;;;;;;7.50;3.08;;;;;;;16.49;100.00;100686.00;4959992;28;20304;-73
2022/06/08 09:57:28;;;;;;;8.20;2.90;;;;;;;16.54;100.00;100682.56;4968403;28;20038;-73
2022/06/08 10:00:08;;;;;;;8.35;3.13;;;;;;;16.54;100.00;100682.56;4963738;28;20066;-72
2022/06/08 10:02:39;;;;;;;11.75;3.15;;;;;;;16.50;100.00;100678.16;4968856;28;20110;-73
2022/06/08 10:05:32;;;;;;;7.22;3.40;;;;;;;16.51;100.00;100677.31;4968972;28;20019;-73
2022/06/08 10:08:14;;;;;;;6.57;2.50;;;;;;;16.45;100.00;100672.06;4968906;28;20081;-72
2022/06/08 10:10:57;;;;;;;8.90;3.17;;;;;;;16.43;100.00;100682.50;4966426;28;20467;-73
2022/06/08 10:13:34;;;;;;;5.43;2.80;;;;;;;16.32;100.00;100682.44;4968808;28;20372;-73
2022/06/08 10:16:18;;;;;;;6.00;2.85;;;;;;;16.26;100.00;100677.16;4968972;28;20023;-73
2022/06/08 10:18:50;;;;;;;14.60;4.13;;;;;;;16.25;100.00;100680.66;4958324;28;20120;-73
2022/06/08 10:21:21;;;;;;;10.70;3.30;;;;;;;16.24;100.00;100680.66;4968195;28;20054;-73
2022/06/08 10:23:57;;;;;;;6.53;3.53;;;;;;;16.16;100.00;100676.25;4968522;28;20023;-73
2022/06/08 10:26:44;;;;;;;8.88;3.70;;;;;;;16.14;100.00;100677.09;4968682;28;20498;-72
2022/06/08 10:29:21;;;;;;;7.70;3.92;;;;;;;16.07;100.00;100682.31;4967916;28;20022;-73
2022/06/08 10:32:05;;;;;;;8.48;3.88;;;;;;;15.99;100.00;100681.34;4968588;28;20026;-73
2022/06/08 10:34:33;;;;;;;8.05;3.63;;;;;;;15.83;100.00;100678.59;4968129;28;20477;-73
2022/06/08 10:37:20;;;;;;;8.38;4.28;;;;;;;15.73;100.00;100674.19;4967951;28;20062;-72
2022/06/08 10:39:48;;;;;;;10.05;4.55;;;;;;;15.63;100.00;100685.41;4967730;28;20432;-73
2022/06/08 10:42:40;;;;;;;10.02;4.85;;;;;;;15.59;100.00;100685.41;4968225;28;20031;-73
2022/06/08 10:45:21;;;;;;;8.85;5.00;;;;;;;15.53;100.00;100693.16;4950401;28;20027;-73
2022/06/08 10:48:11;;;;;;;10.98;5.32;;;;;;;15.49;100.00;100683.53;4959694;28;20022;-73
2022/06/08 10:50:43;;;;;;;12.90;6.05;;;;;;;15.33;100.00;100678.19;4965682;28;20077;-72
2022/06/08 10:56:23;;;;;;;11.15;5.28;;;;;;;15.26;100.00;100681.59;4966904;28;20077;-72
2022/06/08 10:59:03;;;;;;;8.15;4.28;;;;;;;15.29;100.00;100676.41;4967268;28;20431;-73
2022/06/08 11:01:31;;;;;;;8.32;4.22;;;;;;;15.32;100.00;100678.19;4954048;28;20499;-72
2022/06/08 11:03:58;;;;;;;11.63;3.80;;;;;;;15.33;100.00;100672.97;4959928;28;20499;-73
2022/06/08 11:06:45;;;;;;;9.18;3.95;;;;;;;15.35;100.00;100668.63;4964365;28;20070;-73
2022/06/08 11:09:33;;;;;;;9.40;4.10;;;;;;;15.29;100.00;100668.56;4967630;28;20027;-73
2022/06/08 11:12:13;;;;;;;11.13;4.65;;;;;;;15.34;100.00;100669.47;4964703;28;20034;-73
2022/06/08 11:14:47;;;;;;;9.63;4.43;;;;;;;15.36;100.00;100672.13;4966985;28;20035;-73
2022/06/08 11:17:35;;;;;;;10.70;5.55;;;;;;;15.40;100.00;100657.38;4966861;28;20074;-72
2022/06/08 11:20:23;;;;;;;9.30;4.53;;;;;;;15.40;100.00;100663.44;4967145;28;20038;-73
2022/06/08 11:22:58;;;;;;;8.95;4.03;;;;;;;15.32;100.00;100655.56;4963779;28;20039;-73
2022/06/08 11:25:31;;;;;;;8.93;3.67;;;;;;;15.37;100.00;100647.75;4966951;28;20050;-72
2022/06/08 11:28:27;;;;;;;9.55;3.20;;;;;;;15.21;100.00;100647.63;4966951;28;20486;-73
2022/06/08 11:30:55;;;;;;;6.60;3.03;;;;;;;15.27;100.00;100651.16;4959921;28;20164;-73
2022/06/08 11:33:21;;;;;;;12.20;4.70;;;;;;;15.28;100.00;100640.72;4967124;28;20037;-73
2022/06/08 11:35:58;;;;;;;7.80;3.60;;;;;;;15.27;100.00;100641.59;4962883;28;20035;-72
2022/06/08 11:39:01;;;;;;;6.68;3.45;;;;;;;15.20;100.00;100634.56;4966645;28;20368;-74